createdAt,value
2019-05-07T00:02:26.084Z,68.79
2019-05-07T00:04:54.566Z,69.45
2019-05-07T00:07:23.030Z,69.19
2019-05-07T00:09:52.604Z,69.68
2019-05-07T00:12:23.019Z,71.00
2019-05-07T00:15:00.548Z,71.76
2019-05-07T00:17:22.876Z,71.10
2019-05-07T00:19:52.615Z,70.09
2019-05-07T00:22:22.732Z,73.58
2019-05-07T00:24:52.145Z,73.30
2019-05-07T00:27:22.604Z,72.56
2019-05-07T00:29:52.093Z,77.09
2019-05-07T00:32:22.159Z,77.74
2019-05-07T00:34:54.285Z,76.79
2019-05-07T00:37:26.876Z,76.63
2019-05-07T00:40:02.874Z,76.22
2019-05-07T00:42:32.998Z,78.37
2019-05-07T00:45:16.987Z,76.22
2019-05-07T00:47:36.294Z,78.27
2019-05-07T00:50:08.158Z,80.05
2019-05-07T00:52:36.631Z,80.11
2019-05-07T00:55:06.766Z,81.24
2019-05-07T00:57:35.236Z,82.59
2019-05-07T01:00:05.871Z,80.56
2019-05-07T01:02:34.343Z,81.49
2019-05-07T01:05:03.185Z,81.00
2019-05-07T01:07:32.464Z,79.81
2019-05-07T01:10:02.206Z,82.22
2019-05-07T01:12:32.847Z,80.89
2019-05-07T01:15:02.990Z,82.17
2019-05-07T01:17:33.346Z,81.92
2019-05-07T01:20:02.899Z,83.18
2019-05-07T01:22:33.075Z,83.17
2019-05-07T01:25:02.339Z,83.30
2019-05-07T01:27:32.136Z,84.74
2019-05-07T01:30:02.515Z,84.84
2019-05-07T01:32:33.167Z,85.60
2019-05-07T01:35:03.345Z,83.80
2019-05-07T01:37:32.588Z,85.61
2019-05-07T01:40:03.015Z,86.11
2019-05-07T01:42:32.667Z,83.98
2019-05-07T01:45:02.432Z,85.29
2019-05-07T01:47:33.172Z,85.84
2019-05-07T01:50:03.001Z,86.14
2019-05-07T01:52:33.133Z,85.15
2019-05-07T01:55:03.275Z,85.12
2019-05-07T01:57:32.581Z,85.35
2019-05-07T02:00:02.570Z,84.72
2019-05-07T02:02:52.032Z,86.35
2019-05-07T02:05:22.918Z,85.10
2019-05-07T02:07:53.127Z,84.76
2019-05-07T02:10:23.227Z,85.51
2019-05-07T02:12:52.641Z,84.65
2019-05-07T02:15:22.623Z,85.03
2019-05-07T02:17:52.552Z,86.65
2019-05-07T02:20:22.516Z,86.98
2019-05-07T02:22:53.038Z,86.68
2019-05-07T02:25:22.102Z,85.97
2019-05-07T02:27:52.745Z,85.65
2019-05-07T02:30:23.773Z,86.50
2019-05-07T02:32:53.948Z,84.43
2019-05-07T02:35:23.481Z,85.63
2019-05-07T02:37:56.828Z,86.51
2019-05-07T02:40:28.819Z,87.59
2019-05-07T02:42:57.292Z,85.57
2019-05-07T02:45:45.743Z,85.50
2019-05-07T02:48:15.642Z,87.42
2019-05-07T02:50:45.731Z,87.83
2019-05-07T02:53:22.790Z,86.56
2019-05-07T02:55:53.185Z,87.31
2019-05-07T02:58:23.992Z,87.26
2019-05-07T03:00:53.221Z,87.60
2019-05-07T03:03:24.623Z,85.87
2019-05-07T03:05:53.753Z,87.52
2019-05-07T03:08:26.917Z,87.93
2019-05-07T03:10:53.047Z,88.56
2019-05-07T03:13:23.689Z,88.71
2019-05-07T03:15:53.983Z,87.50
2019-05-07T03:18:23.280Z,86.73
2019-05-07T03:20:53.914Z,86.82
2019-05-07T03:23:24.028Z,88.50
2019-05-07T03:25:57.473Z,88.36
2019-05-07T03:28:26.582Z,88.73
2019-05-07T03:31:16.870Z,87.79
2019-05-07T03:33:47.169Z,87.90
2019-05-07T03:36:17.107Z,89.24
2019-05-07T03:38:45.757Z,87.07
2019-05-07T03:41:14.265Z,86.24
2019-05-07T03:43:43.543Z,88.45
2019-05-07T03:46:14.326Z,87.80
2019-05-07T03:48:44.376Z,89.08
2019-05-07T03:51:13.359Z,86.84
2019-05-07T03:53:43.565Z,88.14
2019-05-07T03:56:13.033Z,87.40
2019-05-07T03:58:43.383Z,86.76
2019-05-07T04:01:13.388Z,87.16
2019-05-07T04:03:44.579Z,86.01
2019-05-07T04:06:12.978Z,88.99
2019-05-07T04:08:43.190Z,87.24
2019-05-07T04:11:13.996Z,87.91
2019-05-07T04:13:44.092Z,88.30
2019-05-07T04:16:13.571Z,87.00
2019-05-07T04:18:43.651Z,88.60
2019-05-07T04:21:13.936Z,89.37
2019-05-07T04:23:43.797Z,89.01
2019-05-07T04:26:17.048Z,89.02
2019-05-07T04:28:59.281Z,88.18
2019-05-07T04:31:29.405Z,88.16
2019-05-07T04:33:59.494Z,88.30
2019-05-07T04:36:29.530Z,88.07
2019-05-07T04:38:57.987Z,88.96
2019-05-07T04:41:26.480Z,88.83
2019-05-07T04:43:54.944Z,88.98
2019-05-07T04:46:23.861Z,88.09
2019-05-07T04:48:52.973Z,89.01
2019-05-07T04:51:23.411Z,88.90
2019-05-07T04:53:54.156Z,89.83
2019-05-07T04:56:23.857Z,89.08
2019-05-07T04:58:53.256Z,88.90
2019-05-07T05:01:23.787Z,87.60
2019-05-07T05:03:54.020Z,88.09
2019-05-07T05:06:24.208Z,87.02
2019-05-07T05:08:56.054Z,87.91
2019-05-07T05:11:23.883Z,88.15
2019-05-07T05:13:53.311Z,87.50
2019-05-07T05:16:25.871Z,87.76
2019-05-07T05:18:55.883Z,87.60
2019-05-07T05:21:38.577Z,88.04
2019-05-07T05:24:08.677Z,86.96
2019-05-07T05:26:37.173Z,87.06
2019-05-07T05:29:05.658Z,86.15
2019-05-07T05:31:34.145Z,85.41
2019-05-07T05:34:02.594Z,85.63
2019-05-07T05:36:33.029Z,85.69
2019-05-07T05:39:02.488Z,85.82
2019-05-07T05:41:34.136Z,84.15
2019-05-07T05:44:13.040Z,83.32
2019-05-07T05:46:42.878Z,82.70
2019-05-07T05:49:11.892Z,82.59
2019-05-07T05:51:45.135Z,82.45
2019-05-07T05:54:23.979Z,81.27
2019-05-07T05:56:54.129Z,81.43
2019-05-07T05:59:32.473Z,81.32
2019-05-07T06:04:45.695Z,80.40
2019-05-07T06:07:33.984Z,79.96
2019-05-07T06:10:06.636Z,78.58
2019-05-07T06:12:42.892Z,77.31
2019-05-07T06:15:29.741Z,77.17
2019-05-07T06:18:06.887Z,76.57
2019-05-07T06:20:34.313Z,74.70
2019-05-07T06:23:22.554Z,72.54
2019-05-07T06:25:52.371Z,72.81
2019-05-07T06:28:22.335Z,72.48
2019-05-07T06:30:52.725Z,71.40
2019-05-07T06:33:22.936Z,69.31
2019-05-07T06:35:52.128Z,68.55
2019-05-07T06:38:22.205Z,69.09
2019-05-07T06:40:55.176Z,67.75
2019-05-07T06:43:25.328Z,67.99
2019-05-07T06:45:55.486Z,69.38
2019-05-07T06:48:37.704Z,64.42
2019-05-07T06:50:57.636Z,67.07
2019-05-07T06:53:33.321Z,67.51
2019-05-07T06:56:03.017Z,64.29
2019-05-07T06:58:33.297Z,62.43
2019-05-07T07:01:03.425Z,59.11
2019-05-07T07:03:48.818Z,61.14
2019-05-07T07:06:24.674Z,62.71
2019-05-07T07:09:03.721Z,60.06
2019-05-07T07:11:33.974Z,57.54
2019-05-07T07:14:02.709Z,60.52
2019-05-07T07:16:32.601Z,62.09
2019-05-07T07:19:03.354Z,61.58
2019-05-07T07:21:32.699Z,57.50
2019-05-07T07:24:03.033Z,57.93
2019-05-07T07:26:32.814Z,56.75
2019-05-07T07:29:01.985Z,57.60
2019-05-07T07:31:32.393Z,51.70
2019-05-07T07:34:02.635Z,54.06
2019-05-07T07:36:32.743Z,55.63
2019-05-07T07:39:02.071Z,53.37
2019-05-07T07:41:38.062Z,52.64
2019-05-07T07:44:06.593Z,53.31
2019-05-07T07:46:35.093Z,51.29
2019-05-07T07:49:10.714Z,46.08
2019-05-07T07:51:41.126Z,47.03
2019-05-07T07:54:04.186Z,49.47
2019-05-07T07:56:50.117Z,51.16
2019-05-07T07:59:33.247Z,44.94
2019-05-07T08:02:03.365Z,46.04
2019-05-07T08:04:32.169Z,45.92
2019-05-07T08:07:03.529Z,44.96
2019-05-07T08:09:34.295Z,44.98
2019-05-07T08:12:03.466Z,43.95
2019-05-07T08:14:32.619Z,45.29
2019-05-07T08:17:02.819Z,43.78
2019-05-07T08:19:32.858Z,44.24
2019-05-07T08:22:02.805Z,42.24
2019-05-07T08:24:32.302Z,42.62
2019-05-07T08:27:02.477Z,40.96
2019-05-07T08:29:32.479Z,40.59
2019-05-07T08:32:06.946Z,40.68
2019-05-07T08:34:37.051Z,40.15
2019-05-07T08:37:05.535Z,41.41
2019-05-07T08:39:33.992Z,40.63
2019-05-07T08:42:02.521Z,40.51
2019-05-07T08:44:51.963Z,39.85
2019-05-07T08:47:42.546Z,37.52
2019-05-07T08:50:12.302Z,39.25
2019-05-07T08:52:41.981Z,38.94
2019-05-07T08:55:12.616Z,38.30
2019-05-07T08:57:42.064Z,38.05
2019-05-07T09:00:12.481Z,38.38
2019-05-07T09:02:42.117Z,38.67
2019-05-07T09:05:11.945Z,38.19
2019-05-07T09:07:42.583Z,37.99
2019-05-07T09:10:12.655Z,38.47
2019-05-07T09:12:42.987Z,36.99
2019-05-07T09:15:12.441Z,38.34
2019-05-07T09:17:42.320Z,36.04
2019-05-07T09:20:12.520Z,37.28
2019-05-07T09:22:42.696Z,36.91
2019-05-07T09:25:12.899Z,35.81
2019-05-07T09:27:43.253Z,35.51
2019-05-07T09:30:32.487Z,34.99
2019-05-07T09:33:12.498Z,34.69
2019-05-07T09:35:42.757Z,34.69
2019-05-07T09:38:12.158Z,34.75
2019-05-07T09:40:42.171Z,34.59
2019-05-07T09:43:11.714Z,35.54
2019-05-07T09:45:42.106Z,36.74
2019-05-07T09:48:11.994Z,37.65
2019-05-07T09:50:42.755Z,35.32
2019-05-07T09:53:12.803Z,35.32
2019-05-07T09:55:42.567Z,34.40
2019-05-07T09:58:12.591Z,36.02
2019-05-07T10:00:43.339Z,36.08
2019-05-07T10:03:13.718Z,35.46
2019-05-07T10:05:42.939Z,35.92
2019-05-07T10:08:12.953Z,33.27
2019-05-07T10:10:42.946Z,32.93
2019-05-07T10:13:13.264Z,32.78
2019-05-07T10:15:41.867Z,33.20
2019-05-07T10:18:14.696Z,31.79
2019-05-07T10:20:43.318Z,32.31
2019-05-07T10:23:13.603Z,31.65
2019-05-07T10:25:42.082Z,31.44
2019-05-07T10:28:12.456Z,30.94
2019-05-07T10:30:42.756Z,30.77
2019-05-07T10:33:12.357Z,32.80
2019-05-07T10:35:43.300Z,33.01
2019-05-07T10:38:12.466Z,34.18
2019-05-07T10:40:41.287Z,33.50
2019-05-07T10:43:10.214Z,32.53
2019-05-07T10:45:56.867Z,32.67
2019-05-07T10:48:42.138Z,32.67
2019-05-07T10:51:10.621Z,32.26
2019-05-07T10:53:39.094Z,33.67
2019-05-07T10:56:07.588Z,34.23
2019-05-07T10:58:36.059Z,34.59
2019-05-07T11:01:05.562Z,34.04
2019-05-07T11:03:34.030Z,34.00
2019-05-07T11:06:02.473Z,35.64
2019-05-07T11:08:32.990Z,34.79
2019-05-07T11:11:02.963Z,36.03
2019-05-07T11:13:31.641Z,35.98
2019-05-07T11:16:02.475Z,36.39
2019-05-07T11:18:32.698Z,35.27
2019-05-07T11:21:03.023Z,35.60
2019-05-07T11:23:32.782Z,36.04
2019-05-07T11:26:02.535Z,37.50
2019-05-07T11:28:32.425Z,36.39
2019-05-07T11:31:02.053Z,36.74
2019-05-07T11:33:32.622Z,36.59
2019-05-07T11:36:02.111Z,36.55
2019-05-07T11:38:33.175Z,36.71
2019-05-07T11:41:02.347Z,36.13
2019-05-07T11:43:38.704Z,37.15
2019-05-07T11:46:13.100Z,36.09
2019-05-07T11:48:43.417Z,35.72
2019-05-07T11:51:28.729Z,36.88
2019-05-07T11:54:13.575Z,35.76
2019-05-07T11:56:42.566Z,36.00
2019-05-07T11:59:13.413Z,36.39
2019-05-07T12:01:47.489Z,36.41
2019-05-07T12:04:13.794Z,37.10
2019-05-07T12:06:42.315Z,36.94
2019-05-07T12:09:12.136Z,36.21
2019-05-07T12:11:42.616Z,35.36
2019-05-07T12:14:12.318Z,35.98
2019-05-07T12:16:42.582Z,35.46
2019-05-07T12:19:13.049Z,35.88
2019-05-07T12:21:42.187Z,35.77
2019-05-07T12:24:12.542Z,35.51
2019-05-07T12:26:42.298Z,35.85
2019-05-07T12:29:11.852Z,35.70
2019-05-07T12:32:02.504Z,35.59
2019-05-07T12:34:32.450Z,35.44
2019-05-07T12:37:01.692Z,35.52
2019-05-07T12:39:31.875Z,35.40
2019-05-07T12:42:01.383Z,35.43
2019-05-07T12:44:31.864Z,35.14
2019-05-07T12:47:01.949Z,35.08
2019-05-07T12:49:32.392Z,34.75
2019-05-07T12:52:02.437Z,34.30
2019-05-07T12:54:39.419Z,35.00
2019-05-07T12:57:07.905Z,34.97
2019-05-07T12:59:36.355Z,35.32
2019-05-07T13:02:27.005Z,35.44
2019-05-07T13:04:46.295Z,36.01
2019-05-07T13:07:25.302Z,36.16
2019-05-07T13:09:54.526Z,35.92
2019-05-07T13:12:23.027Z,36.19
2019-05-07T13:14:52.165Z,35.56
2019-05-07T13:17:22.470Z,35.84
2019-05-07T13:19:52.459Z,35.54
2019-05-07T13:22:21.947Z,35.25
2019-05-07T13:24:52.749Z,35.32
2019-05-07T13:27:20.778Z,35.00
2019-05-07T13:29:49.788Z,35.26
2019-05-07T13:32:19.597Z,35.10
2019-05-07T13:34:48.233Z,34.79
2019-05-07T13:37:18.488Z,34.98
2019-05-07T13:39:54.719Z,35.02
2019-05-07T13:42:34.068Z,35.08
2019-05-07T13:45:04.244Z,34.85
2019-05-07T13:47:34.706Z,34.79
2019-05-07T13:50:03.337Z,34.85
2019-05-07T13:52:33.234Z,34.77
2019-05-07T13:55:01.714Z,34.67
2019-05-07T13:57:32.100Z,34.75
2019-05-07T14:00:04.702Z,34.86
2019-05-07T14:02:32.288Z,34.59
2019-05-07T14:05:01.036Z,34.46
2019-05-07T14:07:32.272Z,34.08
2019-05-07T14:10:02.134Z,34.71
2019-05-07T14:12:33.495Z,34.04
2019-05-07T14:15:02.156Z,34.47
2019-05-07T14:17:30.824Z,34.55
2019-05-07T14:19:59.293Z,34.58
2019-05-07T14:22:27.781Z,34.39
2019-05-07T14:24:56.235Z,34.71
2019-05-07T14:27:24.712Z,34.54
2019-05-07T14:29:53.178Z,34.52
2019-05-07T14:32:26.289Z,34.73
2019-05-07T14:35:08.695Z,34.34
2019-05-07T14:37:38.823Z,34.74
2019-05-07T14:40:08.017Z,34.85
2019-05-07T14:42:47.346Z,34.89
2019-05-07T14:45:16.064Z,35.03
2019-05-07T14:47:44.904Z,35.15
2019-05-07T14:50:14.333Z,35.09
2019-05-07T14:52:43.405Z,35.03
2019-05-07T14:55:12.849Z,35.03
2019-05-07T14:57:42.109Z,35.17
2019-05-07T15:00:12.273Z,34.96
2019-05-07T15:02:42.132Z,35.10
2019-05-07T15:05:12.043Z,35.37
2019-05-07T15:07:40.937Z,35.29
2019-05-07T15:10:10.856Z,35.56
2019-05-07T15:12:39.541Z,35.39
2019-05-07T15:15:08.545Z,36.42
2019-05-07T15:17:53.706Z,35.59
2019-05-07T15:20:22.649Z,35.69
2019-05-07T15:22:55.475Z,35.42
2019-05-07T15:25:24.128Z,35.62
2019-05-07T15:27:52.929Z,35.62
2019-05-07T15:30:22.063Z,35.97
2019-05-07T15:32:52.136Z,35.63
2019-05-07T15:35:20.719Z,35.40
2019-05-07T15:37:49.172Z,36.01
2019-05-07T15:40:18.434Z,35.51
2019-05-07T15:42:46.913Z,35.53
2019-05-07T15:45:15.395Z,35.56
2019-05-07T15:47:45.507Z,35.66
2019-05-07T15:50:14.446Z,35.80
2019-05-07T15:52:51.436Z,36.00
2019-05-07T15:55:14.759Z,35.66
2019-05-07T15:57:43.227Z,35.79
2019-05-07T16:00:13.981Z,35.93
2019-05-07T16:02:45.387Z,36.16
2019-05-07T16:05:14.923Z,36.03
2019-05-07T16:07:44.787Z,36.60
2019-05-07T16:10:15.210Z,36.38
2019-05-07T16:12:43.863Z,36.64
2019-05-07T16:15:13.908Z,36.84
2019-05-07T16:17:46.764Z,36.60
2019-05-07T16:20:15.681Z,36.25
2019-05-07T16:22:45.825Z,36.49
2019-05-07T16:25:14.330Z,36.60
2019-05-07T16:27:42.794Z,36.99
2019-05-07T16:30:14.353Z,36.32
2019-05-07T16:32:42.600Z,36.54
2019-05-07T16:35:12.516Z,36.78
2019-05-07T16:37:42.883Z,36.88
2019-05-07T16:40:12.766Z,36.66
2019-05-07T16:42:42.827Z,36.59
2019-05-07T16:45:13.241Z,36.52
2019-05-07T16:47:41.912Z,36.41
2019-05-07T16:50:13.011Z,36.47
2019-05-07T16:52:42.038Z,36.57
2019-05-07T16:55:12.322Z,36.48
2019-05-07T16:57:42.540Z,36.44
2019-05-07T17:00:13.401Z,36.62
2019-05-07T17:02:52.479Z,36.70
2019-05-07T17:05:22.799Z,36.55
2019-05-07T17:08:02.575Z,36.50
2019-05-07T17:10:31.768Z,36.61
2019-05-07T17:13:02.744Z,36.85
2019-05-07T17:15:30.747Z,36.92
2019-05-07T17:17:59.266Z,36.83
2019-05-07T17:20:27.979Z,37.18
2019-05-07T17:22:57.179Z,37.26
2019-05-07T17:25:37.419Z,37.18
2019-05-07T17:28:09.567Z,37.25
2019-05-07T17:30:38.789Z,37.40
2019-05-07T17:33:07.553Z,37.14
2019-05-07T17:35:36.066Z,37.17
2019-05-07T17:38:09.119Z,37.17
2019-05-07T17:40:34.706Z,37.29
2019-05-07T17:43:03.506Z,37.44
2019-05-07T17:45:32.902Z,37.64
2019-05-07T17:48:03.151Z,37.76
2019-05-07T17:50:36.897Z,38.11
2019-05-07T17:53:05.558Z,37.87
2019-05-07T17:55:34.011Z,38.07
2019-05-07T17:58:02.496Z,38.78
2019-05-07T18:00:32.847Z,38.51
2019-05-07T18:03:19.225Z,38.85
2019-05-07T18:05:47.790Z,38.37
2019-05-07T18:08:17.124Z,38.61
2019-05-07T18:10:45.592Z,38.68
2019-05-07T18:13:14.107Z,38.88
2019-05-07T18:15:42.919Z,38.94
2019-05-07T18:18:14.437Z,39.56
2019-05-07T18:20:42.917Z,39.45
2019-05-07T18:23:16.706Z,39.81
2019-05-07T18:25:42.859Z,39.44
2019-05-07T18:28:12.497Z,39.90
2019-05-07T18:30:41.068Z,39.99
2019-05-07T18:33:13.933Z,40.41
2019-05-07T18:35:43.615Z,40.16
2019-05-07T18:38:12.106Z,40.37
2019-05-07T18:40:42.138Z,40.56
2019-05-07T18:43:12.259Z,40.92
2019-05-07T18:45:40.906Z,40.82
2019-05-07T18:48:11.748Z,41.22
2019-05-07T18:50:41.822Z,41.71
2019-05-07T18:53:11.991Z,42.73
2019-05-07T18:55:42.181Z,41.86
2019-05-07T18:58:10.372Z,41.99
2019-05-07T19:00:42.361Z,42.02
2019-05-07T19:03:10.753Z,42.03
2019-05-07T19:05:39.223Z,42.97
2019-05-07T19:08:08.776Z,42.50
2019-05-07T19:10:37.741Z,42.29
2019-05-07T19:13:06.405Z,43.09
2019-05-07T19:15:35.071Z,43.07
2019-05-07T19:18:03.522Z,45.07
2019-05-07T19:20:32.756Z,44.07
2019-05-07T19:23:02.664Z,43.44
2019-05-07T19:25:32.636Z,43.63
2019-05-07T19:28:02.052Z,44.08
2019-05-07T19:30:32.619Z,44.17
2019-05-07T19:33:00.830Z,44.26
2019-05-07T19:35:29.546Z,44.79
2019-05-07T19:37:58.061Z,44.67
2019-05-07T19:40:26.545Z,45.11
2019-05-07T19:42:55.065Z,44.90
2019-05-07T19:45:24.549Z,45.25
2019-05-07T19:47:53.158Z,45.81
2019-05-07T19:50:23.308Z,45.74
2019-05-07T19:52:52.278Z,45.71
2019-05-07T19:55:22.020Z,46.50
2019-05-07T19:57:52.334Z,46.56
2019-05-07T20:00:22.969Z,46.85
2019-05-07T20:02:53.191Z,46.61
2019-05-07T20:05:21.740Z,46.92
2019-05-07T20:07:54.778Z,47.07
2019-05-07T20:10:33.010Z,47.38
2019-05-07T20:13:03.109Z,48.04
2019-05-07T20:15:32.531Z,47.34
2019-05-07T20:18:03.036Z,47.67
2019-05-07T20:20:33.177Z,48.24
2019-05-07T20:23:02.549Z,48.54
2019-05-07T20:25:33.274Z,49.55
2019-05-07T20:28:02.161Z,51.12
2019-05-07T20:30:32.810Z,48.86
2019-05-07T20:33:02.953Z,49.43
2019-05-07T20:35:32.582Z,48.87
2019-05-07T20:38:02.938Z,49.83
2019-05-07T20:40:32.473Z,49.81
2019-05-07T20:43:01.972Z,49.76
2019-05-07T20:45:32.010Z,50.01
2019-05-07T20:48:02.578Z,50.99
2019-05-07T20:50:33.101Z,51.45
2019-05-07T20:53:02.047Z,50.96
2019-05-07T20:55:47.072Z,50.89
2019-05-07T20:58:15.519Z,50.75
2019-05-07T21:00:44.014Z,51.14
2019-05-07T21:03:23.373Z,50.85
2019-05-07T21:05:53.382Z,51.78
2019-05-07T21:08:22.833Z,51.76
2019-05-07T21:10:53.603Z,51.47
2019-05-07T21:13:30.142Z,53.32
2019-05-07T21:15:52.679Z,52.16
2019-05-07T21:18:23.227Z,52.30
2019-05-07T21:20:52.960Z,51.27
2019-05-07T21:23:23.131Z,51.50
2019-05-07T21:25:52.824Z,51.54
2019-05-07T21:28:21.798Z,52.43
2019-05-07T21:30:52.127Z,51.77
2019-05-07T21:33:22.612Z,52.04
2019-05-07T21:35:52.339Z,54.03
2019-05-07T21:38:22.335Z,54.13
2019-05-07T21:40:51.135Z,52.82
2019-05-07T21:43:21.857Z,52.56
2019-05-07T21:45:49.783Z,52.94
2019-05-07T21:48:18.271Z,55.05
2019-05-07T21:50:46.751Z,55.42
2019-05-07T21:53:19.276Z,53.63
2019-05-07T21:55:59.956Z,54.02
2019-05-07T21:58:32.915Z,53.49
2019-05-07T22:01:21.968Z,53.62
2019-05-07T22:03:52.467Z,53.88
2019-05-07T22:06:22.778Z,53.98
2019-05-07T22:08:52.556Z,53.97
2019-05-07T22:11:22.940Z,53.97
2019-05-07T22:13:54.412Z,54.95
2019-05-07T22:16:22.299Z,54.18
2019-05-07T22:18:52.159Z,55.39
2019-05-07T22:21:20.787Z,54.90
2019-05-07T22:23:49.269Z,54.68
2019-05-07T22:26:22.858Z,54.80
2019-05-07T22:28:47.991Z,54.53
2019-05-07T22:31:18.111Z,54.48
2019-05-07T22:33:59.282Z,55.04
2019-05-07T22:36:27.174Z,54.97
2019-05-07T22:38:55.644Z,55.07
2019-05-07T22:41:24.103Z,55.13
2019-05-07T22:43:52.826Z,55.69
2019-05-07T22:46:22.251Z,56.99
2019-05-07T22:48:51.085Z,59.18
2019-05-07T22:51:19.541Z,57.40
2019-05-07T22:53:48.021Z,57.53
2019-05-07T22:56:31.041Z,58.99
2019-05-07T22:58:48.696Z,59.37
2019-05-07T23:01:18.780Z,57.69
2019-05-07T23:03:47.428Z,58.43
2019-05-07T23:06:15.889Z,57.73
2019-05-07T23:08:44.362Z,58.44
2019-05-07T23:11:12.980Z,60.29
2019-05-07T23:13:42.739Z,58.54
2019-05-07T23:16:12.522Z,57.73
2019-05-07T23:18:42.855Z,57.74
2019-05-07T23:21:11.739Z,58.25
2019-05-07T23:23:42.269Z,57.58
2019-05-07T23:26:14.271Z,58.01
2019-05-07T23:28:41.869Z,58.01
2019-05-07T23:31:12.157Z,58.48
2019-05-07T23:33:40.838Z,58.51
2019-05-07T23:36:09.291Z,58.28
2019-05-07T23:38:37.772Z,58.12
2019-05-07T23:41:12.639Z,58.31
2019-05-07T23:43:42.410Z,58.38
2019-05-07T23:46:12.851Z,61.67
2019-05-07T23:48:42.713Z,60.61
2019-05-07T23:51:12.629Z,61.45
2019-05-07T23:53:44.150Z,59.72
2019-05-07T23:56:13.126Z,59.66
2019-05-07T23:58:42.046Z,60.99
